sensor_id;sensor_type;location;lat;lon;timestamp;P1;durP1;ratioP1;P2;durP2;ratioP2
51020;SDS011;38907;45.562;8.856;2023-09-19T18:21:06;14.17;;;5.53;;
51020;SDS011;38907;45.562;8.856;2023-09-19T18:26:09;7.30;;;5.13;;
51020;SDS011;38907;45.562;8.856;2023-09-19T18:31:13;8.05;;;5.13;;
51020;SDS011;38907;45.562;8.856;2023-09-19T18:36:19;11.13;;;5.50;;
51020;SDS011;38907;45.562;8.856;2023-09-19T18:41:21;7.45;;;4.80;;
51020;SDS011;38907;45.562;8.856;2023-09-19T18:46:24;9.88;;;4.43;;
51020;SDS011;38907;45.562;8.856;2023-09-19T18:51:31;8.90;;;5.00;;
51020;SDS011;38907;45.562;8.856;2023-09-19T18:56:33;8.90;;;5.15;;
51020;SDS011;38907;45.562;8.856;2023-09-19T19:01:37;5.90;;;5.40;;
51020;SDS011;38907;45.562;8.856;2023-09-19T19:06:41;13.57;;;6.38;;
51020;SDS011;38907;45.562;8.856;2023-09-19T19:11:43;10.32;;;5.95;;
51020;SDS011;38907;45.562;8.856;2023-09-19T19:16:46;10.23;;;6.05;;
51020;SDS011;38907;45.562;8.856;2023-09-19T19:21:52;13.80;;;6.30;;
51020;SDS011;38907;45.562;8.856;2023-09-19T19:26:55;11.90;;;6.40;;
51020;SDS011;38907;45.562;8.856;2023-09-19T19:31:57;11.30;;;6.72;;
51020;SDS011;38907;45.562;8.856;2023-09-19T19:37:01;9.32;;;6.70;;
51020;SDS011;38907;45.562;8.856;2023-09-19T19:42:04;11.05;;;6.30;;
51020;SDS011;38907;45.562;8.856;2023-09-19T19:47:08;10.32;;;5.53;;
51020;SDS011;38907;45.562;8.856;2023-09-19T19:52:13;10.18;;;5.72;;
51020;SDS011;38907;45.562;8.856;2023-09-19T19:57:18;10.45;;;5.43;;
51020;SDS011;38907;45.562;8.856;2023-09-19T20:02:29;8.20;;;5.68;;
51020;SDS011;38907;45.562;8.856;2023-09-19T20:07:40;9.52;;;5.47;;
51020;SDS011;38907;45.562;8.856;2023-09-19T20:12:48;6.63;;;5.38;;
51020;SDS011;38907;45.562;8.856;2023-09-19T20:17:52;9.15;;;6.38;;
51020;SDS011;38907;45.562;8.856;2023-09-19T20:23:01;8.98;;;7.00;;
51020;SDS011;38907;45.562;8.856;2023-09-19T20:28:04;11.23;;;7.25;;
51020;SDS011;38907;45.562;8.856;2023-09-19T20:33:08;11.65;;;7.38;;
51020;SDS011;38907;45.562;8.856;2023-09-19T20:38:14;9.13;;;7.38;;
51020;SDS011;38907;45.562;8.856;2023-09-19T20:43:18;10.95;;;6.82;;
51020;SDS011;38907;45.562;8.856;2023-09-19T20:48:21;10.13;;;6.60;;
51020;SDS011;38907;45.562;8.856;2023-09-19T20:53:27;9.93;;;6.60;;
51020;SDS011;38907;45.562;8.856;2023-09-19T20:58:32;9.80;;;7.25;;
51020;SDS011;38907;45.562;8.856;2023-09-19T21:03:35;8.23;;;6.43;;
51020;SDS011;38907;45.562;8.856;2023-09-19T21:08:40;11.70;;;7.45;;
51020;SDS011;38907;45.562;8.856;2023-09-19T21:13:43;9.82;;;7.40;;
51020;SDS011;38907;45.562;8.856;2023-09-19T21:18:48;11.27;;;7.57;;
51020;SDS011;38907;45.562;8.856;2023-09-19T21:23:52;14.25;;;7.18;;
51020;SDS011;38907;45.562;8.856;2023-09-19T21:28:54;8.70;;;7.07;;
51020;SDS011;38907;45.562;8.856;2023-09-19T21:33:59;10.23;;;7.38;;
51020;SDS011;38907;45.562;8.856;2023-09-19T21:39:04;13.75;;;8.68;;
51020;SDS011;38907;45.562;8.856;2023-09-19T21:44:07;17.48;;;8.52;;
51020;SDS011;38907;45.562;8.856;2023-09-19T21:49:13;9.02;;;8.07;;
51020;SDS011;38907;45.562;8.856;2023-09-19T21:54:24;17.05;;;7.93;;
51020;SDS011;38907;45.562;8.856;2023-09-19T21:59:29;12.70;;;8.48;;
51020;SDS011;38907;45.562;8.856;2023-09-19T22:04:32;11.43;;;8.13;;
51020;SDS011;38907;45.562;8.856;2023-09-19T22:09:36;10.65;;;7.72;;
51020;SDS011;38907;45.562;8.856;2023-09-19T22:14:38;13.77;;;7.85;;
51020;SDS011;38907;45.562;8.856;2023-09-19T22:19:40;13.27;;;7.50;;
51020;SDS011;38907;45.562;8.856;2023-09-19T22:24:45;9.77;;;7.03;;
51020;SDS011;38907;45.562;8.856;2023-09-19T22:29:49;11.73;;;7.10;;
51020;SDS011;38907;45.562;8.856;2023-09-19T22:34:51;12.55;;;6.63;;
51020;SDS011;38907;45.562;8.856;2023-09-19T22:39:55;11.40;;;6.80;;
51020;SDS011;38907;45.562;8.856;2023-09-19T22:44:58;15.00;;;7.05;;
51020;SDS011;38907;45.562;8.856;2023-09-19T22:50:00;9.63;;;6.00;;
51020;SDS011;38907;45.562;8.856;2023-09-19T22:55:14;11.68;;;6.03;;
51020;SDS011;38907;45.562;8.856;2023-09-19T23:00:24;8.57;;;6.80;;
51020;SDS011;38907;45.562;8.856;2023-09-19T23:05:26;15.50;;;7.70;;
51020;SDS011;38907;45.562;8.856;2023-09-19T23:10:39;12.77;;;7.68;;
51020;SDS011;38907;45.562;8.856;2023-09-19T23:15:44;17.65;;;7.60;;
51020;SDS011;38907;45.562;8.856;2023-09-19T23:20:54;12.57;;;8.15;;
51020;SDS011;38907;45.562;8.856;2023-09-19T23:26:05;13.38;;;8.77;;
51020;SDS011;38907;45.562;8.856;2023-09-19T23:31:08;14.73;;;9.30;;
51020;SDS011;38907;45.562;8.856;2023-09-19T23:36:10;15.02;;;9.32;;
51020;SDS011;38907;45.562;8.856;2023-09-19T23:41:15;10.35;;;8.27;;
51020;SDS011;38907;45.562;8.856;2023-09-19T23:46:21;14.65;;;8.50;;
51020;SDS011;38907;45.562;8.856;2023-09-19T23:51:26;16.33;;;7.70;;
51020;SDS011;38907;45.562;8.856;2023-09-19T23:56:31;13.57;;;7.80;;
